»·PEaware :: N153MS KCMA-KTOA

N153MS :: KCMA-KTOA

FLIGHT INFORMATION

Flight Status: Arrived
Operator: Privately registered:
United States
More flights under this callsign
Pilot: Shane N. (25833)
Aircraft: MOONEY M-20K/M ENCORE BRAVO
(M20T)
More flights by this aircraft type
Origin: KCMA Camarillo
United States
Destination: KTOA Zamperini
United States
More flights between these airports :: More routes between these airports
Route: VTU044R GINNA V326 VNY V186 ADAMM V394 SLI
File this flight plan on PilotEdge
Remarks: TEC VTUP6
Altitude:
(Current/Filed)
5,000ft
Speed:
(Current/Filed)
180kts
Departed: 31-Oct-19 08:58 PM
Arrived: 31-Oct-19 09:46 PM
Distance/Time
Traveled:
45nm/0:48
Distance/Time
To Go:
Arrived

Flight Plot

Page will automatically refresh every two minutes.


Map Options




Map Legend


Flown Route
Filed Route
Departure Airport
Arrival Airport
Navaid (VOR, NDB)
Fix

Horizontal Profiles

Position Reports

Time Latitude Longitude Heading Altitude Ground
Speed
31-Oct-19 20:45 34.210629 -119.093492 87 66ft 0kts
31-Oct-19 20:46 34.210629 -119.093492 87 66ft 0kts
31-Oct-19 20:47 34.210629 -119.093492 87 66ft 0kts
31-Oct-19 20:48 34.210629 -119.093492 87 66ft 0kts
31-Oct-19 20:49 34.210629 -119.093492 87 66ft 0kts
31-Oct-19 20:50 34.210629 -119.093492 87 66ft 0kts
31-Oct-19 20:51 34.210629 -119.093492 87 66ft 0kts
31-Oct-19 20:52 34.210629 -119.093492 87 66ft 0kts
31-Oct-19 20:53 34.210630 -119.093479 87 66ft 0kts
31-Oct-19 20:54 34.211030 -119.089339 92 70ft 30kts
31-Oct-19 20:54 34.212197 -119.084475 358 77ft 12kts
31-Oct-19 20:56 34.212871 -119.084486 359 79ft 0kts
31-Oct-19 20:56 34.212871 -119.084486 359 79ft 0kts
31-Oct-19 20:57 34.213795 -119.096013 271 220ft 104kts
31-Oct-19 20:59 34.219985 -119.136302 286 2147ft 108kts
31-Oct-19 20:59 34.226690 -119.165311 286 3525ft 110kts
31-Oct-19 21:00 34.235050 -119.201871 286 4980ft 131kts
31-Oct-19 21:02 34.250034 -119.265613 287 5000ft 181kts
31-Oct-19 21:02 34.262351 -119.314226 303 4987ft 179kts
31-Oct-19 21:03 34.292126 -119.290362 81 4998ft 184kts
31-Oct-19 21:04 34.296979 -119.228439 89 4994ft 185kts
31-Oct-19 21:05 34.286627 -119.167097 100 5000ft 184kts
31-Oct-19 21:06 34.275318 -119.107037 100 5000ft 181kts
31-Oct-19 21:07 34.264210 -119.048429 101 5000ft 180kts
31-Oct-19 21:08 34.253079 -118.989916 101 5000ft 179kts
31-Oct-19 21:09 34.241893 -118.931257 101 4991ft 178kts
31-Oct-19 21:10 34.230692 -118.872693 101 4990ft 178kts
31-Oct-19 21:11 34.223442 -118.813866 89 4991ft 176kts
31-Oct-19 21:12 34.223153 -118.754372 88 4989ft 176kts
31-Oct-19 21:13 34.223216 -118.694904 87 4986ft 176kts
31-Oct-19 21:14 34.223314 -118.634586 88 4989ft 179kts
31-Oct-19 21:15 34.223388 -118.573976 88 4988ft 180kts
31-Oct-19 21:16 34.223420 -118.513195 88 4987ft 181kts
31-Oct-19 21:17 34.211918 -118.453721 107 4984ft 183kts
31-Oct-19 21:18 34.194299 -118.395520 107 4982ft 183kts
31-Oct-19 21:19 34.177188 -118.339172 107 4982ft 184kts
31-Oct-19 21:20 34.159543 -118.281181 107 4980ft 185kts
31-Oct-19 21:21 34.141893 -118.223249 107 4976ft 185kts
31-Oct-19 21:22 34.124184 -118.165267 107 4970ft 184kts
31-Oct-19 21:23 34.108451 -118.113850 108 4964ft 183kts
31-Oct-19 21:24 34.091321 -118.058011 108 4960ft 182kts
31-Oct-19 21:25 34.073722 -118.000694 108 4982ft 181kts
31-Oct-19 21:26 34.056138 -117.943547 108 4993ft 181kts
31-Oct-19 21:27 34.038554 -117.886514 108 5001ft 181kts
31-Oct-19 21:28 34.016093 -117.833178 156 4986ft 185kts
31-Oct-19 21:29 33.966486 -117.841473 200 4984ft 187kts
31-Oct-19 21:30 33.919905 -117.863904 200 4966ft 188kts
31-Oct-19 21:31 33.872908 -117.886610 200 4963ft 187kts
31-Oct-19 21:32 33.825824 -117.913196 224 4984ft 187kts
31-Oct-19 21:33 33.806622 -117.965283 253 4408ft 151kts
31-Oct-19 21:34 33.794703 -118.010983 253 3522ft 143kts
31-Oct-19 21:35 33.781783 -118.055497 240 2616ft 138kts
31-Oct-19 21:36 33.759813 -118.092572 234 1993ft 137kts
31-Oct-19 21:37 33.737207 -118.128997 234 1993ft 141kts
31-Oct-19 21:38 33.715458 -118.163999 234 1996ft 144kts
31-Oct-19 21:39 33.714679 -118.204071 302 1994ft 130kts
31-Oct-19 21:40 33.732777 -118.232600 308 1998ft 98kts
31-Oct-19 21:41 33.749804 -118.258172 308 1897ft 98kts
31-Oct-19 21:42 33.765737 -118.282121 306 1358ft 79kts
31-Oct-19 21:43 33.779687 -118.303144 306 867ft 80kts
31-Oct-19 21:44 33.793752 -118.324248 306 378ft 80kts
31-Oct-19 21:45 33.805139 -118.341380 294 92ft 32kts
31-Oct-19 21:46 33.805653 -118.345276 215 96ft 12kts

Navigation Log

Ident Type
Flight plan parsing failed, navigation log unavailable